sensor_id;sensor_type;location;lat;lon;timestamp;P1;durP1;ratioP1;P2;durP2;ratioP2
20095;SDS011;10207;50.942;6.900;2023-08-08T00:01:07;2.60;;;1.45;;
20095;SDS011;10207;50.942;6.900;2023-08-08T00:03:33;4.20;;;1.33;;
20095;SDS011;10207;50.942;6.900;2023-08-08T00:06:00;4.35;;;1.65;;
20095;SDS011;10207;50.942;6.900;2023-08-08T00:08:26;3.72;;;1.63;;
20095;SDS011;10207;50.942;6.900;2023-08-08T00:10:52;3.20;;;1.20;;
20095;SDS011;10207;50.942;6.900;2023-08-08T00:13:17;5.03;;;1.50;;
20095;SDS011;10207;50.942;6.900;2023-08-08T00:15:43;2.10;;;1.38;;
20095;SDS011;10207;50.942;6.900;2023-08-08T00:18:09;3.90;;;1.48;;
20095;SDS011;10207;50.942;6.900;2023-08-08T00:20:35;3.33;;;1.30;;
20095;SDS011;10207;50.942;6.900;2023-08-08T00:23:01;5.63;;;1.48;;
20095;SDS011;10207;50.942;6.900;2023-08-08T00:25:28;4.43;;;1.60;;
20095;SDS011;10207;50.942;6.900;2023-08-08T00:27:53;2.95;;;1.65;;
20095;SDS011;10207;50.942;6.900;2023-08-08T00:30:19;4.50;;;1.58;;
20095;SDS011;10207;50.942;6.900;2023-08-08T00:32:45;3.67;;;1.65;;
20095;SDS011;10207;50.942;6.900;2023-08-08T00:35:11;3.78;;;1.77;;
20095;SDS011;10207;50.942;6.900;2023-08-08T00:37:37;3.78;;;1.95;;
20095;SDS011;10207;50.942;6.900;2023-08-08T00:40:03;8.20;;;2.05;;
20095;SDS011;10207;50.942;6.900;2023-08-08T00:42:29;6.25;;;2.20;;
20095;SDS011;10207;50.942;6.900;2023-08-08T00:44:55;4.07;;;1.70;;
20095;SDS011;10207;50.942;6.900;2023-08-08T00:47:27;3.22;;;1.60;;
20095;SDS011;10207;50.942;6.900;2023-08-08T00:49:54;5.90;;;1.65;;
20095;SDS011;10207;50.942;6.900;2023-08-08T00:52:21;3.47;;;1.50;;
20095;SDS011;10207;50.942;6.900;2023-08-08T00:54:47;2.47;;;1.45;;
20095;SDS011;10207;50.942;6.900;2023-08-08T00:57:12;3.05;;;1.88;;
20095;SDS011;10207;50.942;6.900;2023-08-08T00:59:38;3.65;;;1.30;;
20095;SDS011;10207;50.942;6.900;2023-08-08T01:02:04;4.22;;;1.40;;
20095;SDS011;10207;50.942;6.900;2023-08-08T01:04:30;2.60;;;1.67;;
20095;SDS011;10207;50.942;6.900;2023-08-08T01:07:20;3.30;;;1.30;;
20095;SDS011;10207;50.942;6.900;2023-08-08T01:09:54;3.10;;;1.88;;
20095;SDS011;10207;50.942;6.900;2023-08-08T01:12:21;5.03;;;1.70;;
20095;SDS011;10207;50.942;6.900;2023-08-08T01:14:49;3.13;;;1.63;;
20095;SDS011;10207;50.942;6.900;2023-08-08T01:17:15;3.38;;;1.55;;
20095;SDS011;10207;50.942;6.900;2023-08-08T01:19:41;3.40;;;1.55;;
20095;SDS011;10207;50.942;6.900;2023-08-08T01:22:09;2.60;;;1.55;;
20095;SDS011;10207;50.942;6.900;2023-08-08T01:24:37;4.15;;;1.60;;
20095;SDS011;10207;50.942;6.900;2023-08-08T01:27:04;5.25;;;1.40;;
20095;SDS011;10207;50.942;6.900;2023-08-08T01:29:31;2.75;;;1.48;;
20095;SDS011;10207;50.942;6.900;2023-08-08T01:31:57;7.57;;;1.48;;
20095;SDS011;10207;50.942;6.900;2023-08-08T01:34:23;3.03;;;1.65;;
20095;SDS011;10207;50.942;6.900;2023-08-08T01:36:56;3.35;;;1.40;;
20095;SDS011;10207;50.942;6.900;2023-08-08T01:39:26;4.10;;;1.80;;
20095;SDS011;10207;50.942;6.900;2023-08-08T01:41:54;8.55;;;2.28;;
20095;SDS011;10207;50.942;6.900;2023-08-08T01:44:20;3.55;;;1.73;;
20095;SDS011;10207;50.942;6.900;2023-08-08T01:46:47;3.45;;;1.63;;
20095;SDS011;10207;50.942;6.900;2023-08-08T01:49:14;4.07;;;1.73;;
20095;SDS011;10207;50.942;6.900;2023-08-08T01:51:39;2.90;;;1.48;;
20095;SDS011;10207;50.942;6.900;2023-08-08T01:54:08;3.20;;;1.98;;
20095;SDS011;10207;50.942;6.900;2023-08-08T01:56:34;3.30;;;1.70;;
20095;SDS011;10207;50.942;6.900;2023-08-08T01:59:00;5.20;;;1.20;;
20095;SDS011;10207;50.942;6.900;2023-08-08T02:01:26;2.95;;;1.48;;
20095;SDS011;10207;50.942;6.900;2023-08-08T02:03:52;5.88;;;1.80;;
20095;SDS011;10207;50.942;6.900;2023-08-08T02:06:18;5.13;;;1.65;;
20095;SDS011;10207;50.942;6.900;2023-08-08T02:08:44;2.65;;;1.60;;
20095;SDS011;10207;50.942;6.900;2023-08-08T02:11:11;5.40;;;1.98;;
20095;SDS011;10207;50.942;6.900;2023-08-08T02:13:37;5.13;;;2.03;;
20095;SDS011;10207;50.942;6.900;2023-08-08T02:16:03;4.15;;;2.05;;
20095;SDS011;10207;50.942;6.900;2023-08-08T02:18:30;4.50;;;2.67;;
20095;SDS011;10207;50.942;6.900;2023-08-08T02:20:55;5.03;;;1.63;;
20095;SDS011;10207;50.942;6.900;2023-08-08T02:23:21;4.57;;;1.58;;
20095;SDS011;10207;50.942;6.900;2023-08-08T02:25:47;4.57;;;1.83;;
20095;SDS011;10207;50.942;6.900;2023-08-08T02:28:13;6.55;;;2.38;;
20095;SDS011;10207;50.942;6.900;2023-08-08T02:30:39;3.20;;;1.77;;
20095;SDS011;10207;50.942;6.900;2023-08-08T02:33:05;3.25;;;1.40;;
20095;SDS011;10207;50.942;6.900;2023-08-08T02:35:31;2.65;;;1.63;;
20095;SDS011;10207;50.942;6.900;2023-08-08T02:37:57;3.60;;;1.60;;
20095;SDS011;10207;50.942;6.900;2023-08-08T02:40:23;3.58;;;1.45;;
20095;SDS011;10207;50.942;6.900;2023-08-08T02:42:50;6.65;;;1.92;;
20095;SDS011;10207;50.942;6.900;2023-08-08T02:45:16;3.30;;;1.85;;
20095;SDS011;10207;50.942;6.900;2023-08-08T02:47:42;6.43;;;1.83;;
20095;SDS011;10207;50.942;6.900;2023-08-08T02:50:08;5.40;;;1.67;;
20095;SDS011;10207;50.942;6.900;2023-08-08T02:52:34;8.30;;;1.70;;
20095;SDS011;10207;50.942;6.900;2023-08-08T02:55:00;3.67;;;1.52;;
20095;SDS011;10207;50.942;6.900;2023-08-08T02:57:27;5.75;;;1.70;;
20095;SDS011;10207;50.942;6.900;2023-08-08T02:59:55;3.90;;;1.10;;
20095;SDS011;10207;50.942;6.900;2023-08-08T03:02:21;4.47;;;1.52;;
20095;SDS011;10207;50.942;6.900;2023-08-08T03:04:47;8.65;;;2.95;;
20095;SDS011;10207;50.942;6.900;2023-08-08T03:07:13;4.63;;;1.67;;
20095;SDS011;10207;50.942;6.900;2023-08-08T03:09:39;5.55;;;1.48;;
20095;SDS011;10207;50.942;6.900;2023-08-08T03:12:08;4.50;;;1.60;;
20095;SDS011;10207;50.942;6.900;2023-08-08T03:14:35;6.00;;;1.73;;
20095;SDS011;10207;50.942;6.900;2023-08-08T03:17:02;2.72;;;1.73;;
20095;SDS011;10207;50.942;6.900;2023-08-08T03:19:28;2.97;;;1.58;;
20095;SDS011;10207;50.942;6.900;2023-08-08T03:21:56;4.95;;;1.70;;
20095;SDS011;10207;50.942;6.900;2023-08-08T03:24:22;4.75;;;1.40;;
20095;SDS011;10207;50.942;6.900;2023-08-08T03:26:48;6.93;;;2.05;;
20095;SDS011;10207;50.942;6.900;2023-08-08T03:29:14;2.60;;;1.65;;
20095;SDS011;10207;50.942;6.900;2023-08-08T03:31:44;4.53;;;1.70;;
20095;SDS011;10207;50.942;6.900;2023-08-08T03:34:11;7.43;;;1.52;;
20095;SDS011;10207;50.942;6.900;2023-08-08T03:36:37;5.32;;;1.40;;
20095;SDS011;10207;50.942;6.900;2023-08-08T03:39:03;6.25;;;1.80;;
20095;SDS011;10207;50.942;6.900;2023-08-08T03:41:30;5.07;;;2.30;;
20095;SDS011;10207;50.942;6.900;2023-08-08T03:43:56;3.80;;;1.67;;
20095;SDS011;10207;50.942;6.900;2023-08-08T03:46:23;8.07;;;3.47;;
20095;SDS011;10207;50.942;6.900;2023-08-08T03:48:49;4.30;;;1.45;;
20095;SDS011;10207;50.942;6.900;2023-08-08T03:51:15;4.30;;;1.90;;
20095;SDS011;10207;50.942;6.900;2023-08-08T03:53:41;4.03;;;2.17;;
20095;SDS011;10207;50.942;6.900;2023-08-08T03:56:07;3.60;;;1.30;;
20095;SDS011;10207;50.942;6.900;2023-08-08T03:58:33;10.10;;;1.55;;
20095;SDS011;10207;50.942;6.900;2023-08-08T04:00:59;2.38;;;1.50;;
20095;SDS011;10207;50.942;6.900;2023-08-08T04:03:25;6.55;;;1.48;;
20095;SDS011;10207;50.942;6.900;2023-08-08T04:05:51;8.57;;;2.08;;
20095;SDS011;10207;50.942;6.900;2023-08-08T04:08:17;3.83;;;1.75;;
20095;SDS011;10207;50.942;6.900;2023-08-08T04:10:43;3.80;;;1.90;;
20095;SDS011;10207;50.942;6.900;2023-08-08T04:13:09;4.25;;;2.33;;
20095;SDS011;10207;50.942;6.900;2023-08-08T04:15:36;3.85;;;1.63;;
20095;SDS011;10207;50.942;6.900;2023-08-08T04:18:02;6.60;;;1.90;;
20095;SDS011;10207;50.942;6.900;2023-08-08T04:20:28;5.40;;;1.75;;
20095;SDS011;10207;50.942;6.900;2023-08-08T04:22:54;8.48;;;2.38;;
20095;SDS011;10207;50.942;6.900;2023-08-08T04:25:20;5.38;;;2.30;;
20095;SDS011;10207;50.942;6.900;2023-08-08T04:27:46;6.72;;;2.30;;
20095;SDS011;10207;50.942;6.900;2023-08-08T04:30:12;6.10;;;2.10;;
20095;SDS011;10207;50.942;6.900;2023-08-08T04:32:38;7.80;;;1.95;;
20095;SDS011;10207;50.942;6.900;2023-08-08T04:35:04;6.28;;;2.03;;
20095;SDS011;10207;50.942;6.900;2023-08-08T04:37:30;9.45;;;1.88;;
20095;SDS011;10207;50.942;6.900;2023-08-08T04:39:56;5.15;;;1.92;;
20095;SDS011;10207;50.942;6.900;2023-08-08T04:42:22;7.50;;;2.42;;
20095;SDS011;10207;50.942;6.900;2023-08-08T04:44:48;5.43;;;2.45;;
20095;SDS011;10207;50.942;6.900;2023-08-08T04:47:14;8.30;;;2.53;;
20095;SDS011;10207;50.942;6.900;2023-08-08T04:49:40;7.88;;;2.42;;
20095;SDS011;10207;50.942;6.900;2023-08-08T04:52:06;7.07;;;2.67;;
20095;SDS011;10207;50.942;6.900;2023-08-08T04:54:31;14.20;;;3.58;;
20095;SDS011;10207;50.942;6.900;2023-08-08T04:56:57;4.70;;;2.50;;
20095;SDS011;10207;50.942;6.900;2023-08-08T04:59:23;6.72;;;2.65;;
20095;SDS011;10207;50.942;6.900;2023-08-08T05:01:49;8.00;;;2.67;;
20095;SDS011;10207;50.942;6.900;2023-08-08T05:04:17;8.48;;;3.33;;
20095;SDS011;10207;50.942;6.900;2023-08-08T05:06:43;4.85;;;2.35;;
20095;SDS011;10207;50.942;6.900;2023-08-08T05:09:09;9.05;;;3.85;;
20095;SDS011;10207;50.942;6.900;2023-08-08T05:11:35;8.57;;;2.72;;
20095;SDS011;10207;50.942;6.900;2023-08-08T05:14:01;8.57;;;2.38;;
20095;SDS011;10207;50.942;6.900;2023-08-08T05:16:27;6.63;;;2.22;;
20095;SDS011;10207;50.942;6.900;2023-08-08T05:18:53;7.15;;;2.38;;
20095;SDS011;10207;50.942;6.900;2023-08-08T05:21:19;8.95;;;2.50;;
20095;SDS011;10207;50.942;6.900;2023-08-08T05:23:45;7.00;;;2.63;;
20095;SDS011;10207;50.942;6.900;2023-08-08T05:26:11;5.55;;;2.95;;
20095;SDS011;10207;50.942;6.900;2023-08-08T05:28:37;7.05;;;2.45;;
20095;SDS011;10207;50.942;6.900;2023-08-08T05:31:03;8.10;;;2.85;;
20095;SDS011;10207;50.942;6.900;2023-08-08T05:33:29;7.97;;;2.58;;
20095;SDS011;10207;50.942;6.900;2023-08-08T05:35:55;6.13;;;2.60;;
20095;SDS011;10207;50.942;6.900;2023-08-08T05:38:21;5.65;;;2.47;;
20095;SDS011;10207;50.942;6.900;2023-08-08T05:40:47;12.45;;;2.60;;
20095;SDS011;10207;50.942;6.900;2023-08-08T05:43:13;9.63;;;2.45;;
20095;SDS011;10207;50.942;6.900;2023-08-08T05:45:42;8.02;;;2.97;;
20095;SDS011;10207;50.942;6.900;2023-08-08T05:48:08;15.18;;;3.42;;
20095;SDS011;10207;50.942;6.900;2023-08-08T05:50:38;7.22;;;3.42;;
20095;SDS011;10207;50.942;6.900;2023-08-08T05:53:03;7.45;;;2.63;;
20095;SDS011;10207;50.942;6.900;2023-08-08T05:55:30;11.52;;;2.63;;
20095;SDS011;10207;50.942;6.900;2023-08-08T05:57:55;9.30;;;2.92;;
20095;SDS011;10207;50.942;6.900;2023-08-08T06:00:21;9.90;;;2.58;;
20095;SDS011;10207;50.942;6.900;2023-08-08T06:02:47;6.45;;;2.63;;
20095;SDS011;10207;50.942;6.900;2023-08-08T06:05:13;7.25;;;2.58;;
20095;SDS011;10207;50.942;6.900;2023-08-08T06:07:39;10.32;;;2.10;;
20095;SDS011;10207;50.942;6.900;2023-08-08T06:10:05;10.45;;;2.72;;
20095;SDS011;10207;50.942;6.900;2023-08-08T06:12:31;10.35;;;3.22;;
20095;SDS011;10207;50.942;6.900;2023-08-08T06:14:57;8.70;;;2.40;;
20095;SDS011;10207;50.942;6.900;2023-08-08T06:17:23;8.60;;;2.50;;
20095;SDS011;10207;50.942;6.900;2023-08-08T06:19:49;7.63;;;2.55;;
20095;SDS011;10207;50.942;6.900;2023-08-08T06:22:16;7.45;;;1.85;;
20095;SDS011;10207;50.942;6.900;2023-08-08T06:24:42;7.47;;;2.35;;
20095;SDS011;10207;50.942;6.900;2023-08-08T06:27:07;9.77;;;2.22;;
20095;SDS011;10207;50.942;6.900;2023-08-08T06:29:33;7.30;;;1.85;;
20095;SDS011;10207;50.942;6.900;2023-08-08T06:31:59;4.05;;;2.03;;
20095;SDS011;10207;50.942;6.900;2023-08-08T06:34:25;5.90;;;1.95;;
20095;SDS011;10207;50.942;6.900;2023-08-08T06:36:51;7.85;;;1.98;;
20095;SDS011;10207;50.942;6.900;2023-08-08T06:39:17;5.65;;;1.73;;
20095;SDS011;10207;50.942;6.900;2023-08-08T06:41:46;9.05;;;2.35;;
20095;SDS011;10207;50.942;6.900;2023-08-08T06:44:12;4.80;;;1.40;;
20095;SDS011;10207;50.942;6.900;2023-08-08T06:46:38;5.18;;;1.63;;
20095;SDS011;10207;50.942;6.900;2023-08-08T06:49:04;8.60;;;2.30;;
20095;SDS011;10207;50.942;6.900;2023-08-08T06:51:30;4.80;;;2.08;;
20095;SDS011;10207;50.942;6.900;2023-08-08T06:53:56;8.82;;;1.85;;
20095;SDS011;10207;50.942;6.900;2023-08-08T06:56:21;6.82;;;2.00;;
20095;SDS011;10207;50.942;6.900;2023-08-08T06:58:47;6.25;;;1.75;;
20095;SDS011;10207;50.942;6.900;2023-08-08T07:01:13;5.43;;;1.88;;
20095;SDS011;10207;50.942;6.900;2023-08-08T07:03:39;6.65;;;1.83;;
20095;SDS011;10207;50.942;6.900;2023-08-08T07:06:05;5.28;;;1.75;;
20095;SDS011;10207;50.942;6.900;2023-08-08T07:08:31;6.50;;;1.38;;
20095;SDS011;10207;50.942;6.900;2023-08-08T07:10:57;7.97;;;1.83;;
20095;SDS011;10207;50.942;6.900;2023-08-08T07:13:23;7.20;;;2.00;;
20095;SDS011;10207;50.942;6.900;2023-08-08T07:15:49;7.00;;;2.13;;
20095;SDS011;10207;50.942;6.900;2023-08-08T07:18:15;7.40;;;1.70;;
20095;SDS011;10207;50.942;6.900;2023-08-08T07:20:41;4.80;;;1.98;;
20095;SDS011;10207;50.942;6.900;2023-08-08T07:23:07;6.47;;;1.70;;
20095;SDS011;10207;50.942;6.900;2023-08-08T07:25:33;6.32;;;1.67;;
20095;SDS011;10207;50.942;6.900;2023-08-08T07:27:59;5.40;;;2.10;;
20095;SDS011;10207;50.942;6.900;2023-08-08T07:30:25;8.32;;;1.65;;
20095;SDS011;10207;50.942;6.900;2023-08-08T07:32:51;11.02;;;2.25;;
20095;SDS011;10207;50.942;6.900;2023-08-08T07:35:17;7.60;;;3.33;;
20095;SDS011;10207;50.942;6.900;2023-08-08T07:37:43;7.53;;;1.92;;
20095;SDS011;10207;50.942;6.900;2023-08-08T07:40:16;9.40;;;2.45;;
20095;SDS011;10207;50.942;6.900;2023-08-08T07:42:44;8.30;;;1.83;;
20095;SDS011;10207;50.942;6.900;2023-08-08T07:45:10;7.72;;;2.70;;
20095;SDS011;10207;50.942;6.900;2023-08-08T07:47:36;7.68;;;2.05;;
20095;SDS011;10207;50.942;6.900;2023-08-08T07:50:01;8.05;;;1.85;;
20095;SDS011;10207;50.942;6.900;2023-08-08T07:52:28;12.25;;;2.67;;
20095;SDS011;10207;50.942;6.900;2023-08-08T07:54:54;10.65;;;2.58;;
20095;SDS011;10207;50.942;6.900;2023-08-08T07:57:19;6.88;;;2.20;;
20095;SDS011;10207;50.942;6.900;2023-08-08T07:59:45;6.32;;;2.15;;
20095;SDS011;10207;50.942;6.900;2023-08-08T08:02:11;11.48;;;2.38;;
20095;SDS011;10207;50.942;6.900;2023-08-08T08:04:37;7.22;;;2.85;;
20095;SDS011;10207;50.942;6.900;2023-08-08T08:07:03;8.43;;;2.47;;
20095;SDS011;10207;50.942;6.900;2023-08-08T08:09:29;9.07;;;2.50;;
20095;SDS011;10207;50.942;6.900;2023-08-08T08:11:55;8.32;;;2.88;;
20095;SDS011;10207;50.942;6.900;2023-08-08T08:14:21;7.20;;;2.20;;
20095;SDS011;10207;50.942;6.900;2023-08-08T08:16:47;7.90;;;2.30;;
20095;SDS011;10207;50.942;6.900;2023-08-08T08:19:14;6.63;;;2.70;;
20095;SDS011;10207;50.942;6.900;2023-08-08T08:21:39;9.15;;;2.95;;
20095;SDS011;10207;50.942;6.900;2023-08-08T08:24:06;8.10;;;2.63;;
20095;SDS011;10207;50.942;6.900;2023-08-08T08:26:32;6.57;;;2.78;;
20095;SDS011;10207;50.942;6.900;2023-08-08T08:28:58;10.18;;;3.13;;
20095;SDS011;10207;50.942;6.900;2023-08-08T08:31:24;8.63;;;3.00;;
20095;SDS011;10207;50.942;6.900;2023-08-08T08:33:49;8.82;;;3.08;;
20095;SDS011;10207;50.942;6.900;2023-08-08T08:36:15;8.45;;;2.83;;
20095;SDS011;10207;50.942;6.900;2023-08-08T08:38:41;8.25;;;2.92;;
20095;SDS011;10207;50.942;6.900;2023-08-08T08:41:08;5.55;;;2.75;;
20095;SDS011;10207;50.942;6.900;2023-08-08T08:43:34;7.60;;;2.75;;
20095;SDS011;10207;50.942;6.900;2023-08-08T08:46:01;7.85;;;2.53;;
20095;SDS011;10207;50.942;6.900;2023-08-08T08:48:29;8.93;;;2.63;;
20095;SDS011;10207;50.942;6.900;2023-08-08T08:50:57;9.52;;;3.85;;
20095;SDS011;10207;50.942;6.900;2023-08-08T08:53:23;6.57;;;3.08;;
20095;SDS011;10207;50.942;6.900;2023-08-08T08:55:49;6.05;;;2.50;;
20095;SDS011;10207;50.942;6.900;2023-08-08T08:58:15;9.13;;;2.70;;
20095;SDS011;10207;50.942;6.900;2023-08-08T09:00:44;8.43;;;2.58;;
20095;SDS011;10207;50.942;6.900;2023-08-08T09:03:12;8.55;;;3.03;;
20095;SDS011;10207;50.942;6.900;2023-08-08T09:05:38;7.63;;;2.70;;
20095;SDS011;10207;50.942;6.900;2023-08-08T09:08:06;5.97;;;2.00;;
20095;SDS011;10207;50.942;6.900;2023-08-08T09:10:32;7.28;;;2.50;;
20095;SDS011;10207;50.942;6.900;2023-08-08T09:12:58;9.02;;;2.60;;
20095;SDS011;10207;50.942;6.900;2023-08-08T09:15:24;8.75;;;2.47;;
20095;SDS011;10207;50.942;6.900;2023-08-08T09:17:50;7.05;;;2.88;;
20095;SDS011;10207;50.942;6.900;2023-08-08T09:20:16;5.85;;;2.25;;
20095;SDS011;10207;50.942;6.900;2023-08-08T09:22:42;7.80;;;3.00;;
20095;SDS011;10207;50.942;6.900;2023-08-08T09:25:08;8.80;;;2.70;;
20095;SDS011;10207;50.942;6.900;2023-08-08T09:27:35;7.13;;;2.50;;
20095;SDS011;10207;50.942;6.900;2023-08-08T09:30:00;7.10;;;2.10;;
20095;SDS011;10207;50.942;6.900;2023-08-08T09:32:30;7.40;;;2.55;;
20095;SDS011;10207;50.942;6.900;2023-08-08T09:34:56;8.52;;;2.10;;
20095;SDS011;10207;50.942;6.900;2023-08-08T09:37:23;5.80;;;2.35;;
20095;SDS011;10207;50.942;6.900;2023-08-08T09:39:55;8.18;;;2.17;;
20095;SDS011;10207;50.942;6.900;2023-08-08T09:42:21;6.45;;;2.05;;
20095;SDS011;10207;50.942;6.900;2023-08-08T09:44:47;6.70;;;2.10;;
20095;SDS011;10207;50.942;6.900;2023-08-08T09:47:14;11.90;;;2.40;;
20095;SDS011;10207;50.942;6.900;2023-08-08T09:49:40;5.38;;;2.33;;
20095;SDS011;10207;50.942;6.900;2023-08-08T09:52:06;6.30;;;2.50;;
20095;SDS011;10207;50.942;6.900;2023-08-08T09:54:32;5.28;;;1.70;;
20095;SDS011;10207;50.942;6.900;2023-08-08T09:56:59;9.35;;;1.98;;
20095;SDS011;10207;50.942;6.900;2023-08-08T09:59:25;6.97;;;2.10;;
20095;SDS011;10207;50.942;6.900;2023-08-08T10:01:51;5.60;;;1.77;;
20095;SDS011;10207;50.942;6.900;2023-08-08T10:04:18;5.65;;;2.22;;
20095;SDS011;10207;50.942;6.900;2023-08-08T10:06:49;4.03;;;1.80;;
20095;SDS011;10207;50.942;6.900;2023-08-08T10:09:15;8.45;;;2.60;;
20095;SDS011;10207;50.942;6.900;2023-08-08T10:11:42;10.35;;;2.20;;
20095;SDS011;10207;50.942;6.900;2023-08-08T10:14:10;12.07;;;2.50;;
20095;SDS011;10207;50.942;6.900;2023-08-08T10:16:37;7.18;;;1.80;;
20095;SDS011;10207;50.942;6.900;2023-08-08T10:19:03;9.13;;;1.67;;
20095;SDS011;10207;50.942;6.900;2023-08-08T10:21:34;7.97;;;1.70;;
20095;SDS011;10207;50.942;6.900;2023-08-08T10:24:09;7.90;;;2.58;;
20095;SDS011;10207;50.942;6.900;2023-08-08T10:26:51;4.43;;;1.55;;
20095;SDS011;10207;50.942;6.900;2023-08-08T10:29:18;7.43;;;2.08;;
20095;SDS011;10207;50.942;6.900;2023-08-08T10:31:58;4.03;;;1.33;;
20095;SDS011;10207;50.942;6.900;2023-08-08T10:34:36;4.05;;;1.55;;
20095;SDS011;10207;50.942;6.900;2023-08-08T10:37:04;5.72;;;1.25;;
20095;SDS011;10207;50.942;6.900;2023-08-08T10:39:30;3.30;;;1.27;;
20095;SDS011;10207;50.942;6.900;2023-08-08T10:41:59;5.28;;;1.83;;
20095;SDS011;10207;50.942;6.900;2023-08-08T10:44:26;5.15;;;1.50;;
20095;SDS011;10207;50.942;6.900;2023-08-08T10:46:52;3.90;;;1.23;;
20095;SDS011;10207;50.942;6.900;2023-08-08T10:49:19;5.95;;;1.33;;
20095;SDS011;10207;50.942;6.900;2023-08-08T10:51:45;4.78;;;1.75;;
20095;SDS011;10207;50.942;6.900;2023-08-08T10:54:16;5.63;;;1.48;;
20095;SDS011;10207;50.942;6.900;2023-08-08T10:56:49;5.00;;;1.30;;
20095;SDS011;10207;50.942;6.900;2023-08-08T10:59:17;8.23;;;1.50;;
20095;SDS011;10207;50.942;6.900;2023-08-08T11:01:47;5.75;;;1.50;;
20095;SDS011;10207;50.942;6.900;2023-08-08T11:04:13;4.45;;;1.40;;
20095;SDS011;10207;50.942;6.900;2023-08-08T11:06:39;5.03;;;1.73;;
20095;SDS011;10207;50.942;6.900;2023-08-08T11:09:06;5.05;;;1.55;;
20095;SDS011;10207;50.942;6.900;2023-08-08T11:11:36;6.78;;;1.60;;
20095;SDS011;10207;50.942;6.900;2023-08-08T11:14:09;5.35;;;1.50;;
20095;SDS011;10207;50.942;6.900;2023-08-08T11:16:35;5.68;;;1.67;;
20095;SDS011;10207;50.942;6.900;2023-08-08T11:19:01;5.80;;;1.35;;
20095;SDS011;10207;50.942;6.900;2023-08-08T11:21:27;3.38;;;1.20;;
20095;SDS011;10207;50.942;6.900;2023-08-08T11:23:53;4.55;;;1.33;;
20095;SDS011;10207;50.942;6.900;2023-08-08T11:26:18;5.78;;;1.67;;
20095;SDS011;10207;50.942;6.900;2023-08-08T11:28:48;8.68;;;1.60;;
20095;SDS011;10207;50.942;6.900;2023-08-08T11:31:14;5.40;;;1.80;;
20095;SDS011;10207;50.942;6.900;2023-08-08T11:33:40;7.38;;;1.58;;
20095;SDS011;10207;50.942;6.900;2023-08-08T11:36:06;5.05;;;1.50;;
20095;SDS011;10207;50.942;6.900;2023-08-08T11:38:33;8.35;;;1.58;;
20095;SDS011;10207;50.942;6.900;2023-08-08T11:40:59;7.15;;;1.65;;
20095;SDS011;10207;50.942;6.900;2023-08-08T11:43:26;5.45;;;1.50;;
20095;SDS011;10207;50.942;6.900;2023-08-08T11:45:52;2.65;;;1.00;;
20095;SDS011;10207;50.942;6.900;2023-08-08T11:48:20;3.00;;;1.17;;
20095;SDS011;10207;50.942;6.900;2023-08-08T11:50:46;4.03;;;0.93;;
20095;SDS011;10207;50.942;6.900;2023-08-08T11:53:12;10.32;;;1.92;;
20095;SDS011;10207;50.942;6.900;2023-08-08T11:55:38;8.88;;;1.65;;
20095;SDS011;10207;50.942;6.900;2023-08-08T11:58:04;7.05;;;1.95;;
20095;SDS011;10207;50.942;6.900;2023-08-08T12:00:31;4.60;;;1.58;;
20095;SDS011;10207;50.942;6.900;2023-08-08T12:02:57;8.63;;;1.52;;
20095;SDS011;10207;50.942;6.900;2023-08-08T12:05:23;6.63;;;1.27;;
20095;SDS011;10207;50.942;6.900;2023-08-08T12:07:49;3.58;;;0.90;;
20095;SDS011;10207;50.942;6.900;2023-08-08T12:10:20;7.05;;;1.88;;
20095;SDS011;10207;50.942;6.900;2023-08-08T12:12:46;3.97;;;1.08;;
20095;SDS011;10207;50.942;6.900;2023-08-08T12:15:12;7.32;;;1.35;;
20095;SDS011;10207;50.942;6.900;2023-08-08T12:17:39;2.60;;;0.95;;
20095;SDS011;10207;50.942;6.900;2023-08-08T12:20:06;2.78;;;1.15;;
20095;SDS011;10207;50.942;6.900;2023-08-08T12:22:32;7.60;;;1.42;;
20095;SDS011;10207;50.942;6.900;2023-08-08T12:24:58;5.97;;;1.33;;
20095;SDS011;10207;50.942;6.900;2023-08-08T12:27:24;6.65;;;1.40;;
20095;SDS011;10207;50.942;6.900;2023-08-08T12:29:50;3.35;;;1.58;;
20095;SDS011;10207;50.942;6.900;2023-08-08T12:32:16;7.63;;;1.90;;
20095;SDS011;10207;50.942;6.900;2023-08-08T12:34:42;3.90;;;1.13;;
20095;SDS011;10207;50.942;6.900;2023-08-08T12:37:07;2.15;;;0.98;;
20095;SDS011;10207;50.942;6.900;2023-08-08T12:39:33;5.00;;;1.20;;
20095;SDS011;10207;50.942;6.900;2023-08-08T12:41:59;5.75;;;1.52;;
20095;SDS011;10207;50.942;6.900;2023-08-08T12:44:25;4.45;;;1.60;;
20095;SDS011;10207;50.942;6.900;2023-08-08T12:46:51;5.47;;;1.25;;
20095;SDS011;10207;50.942;6.900;2023-08-08T12:49:17;3.10;;;1.30;;
20095;SDS011;10207;50.942;6.900;2023-08-08T12:51:43;9.07;;;1.40;;
20095;SDS011;10207;50.942;6.900;2023-08-08T12:54:09;4.50;;;1.00;;
20095;SDS011;10207;50.942;6.900;2023-08-08T12:56:35;4.50;;;1.30;;
20095;SDS011;10207;50.942;6.900;2023-08-08T12:59:01;5.18;;;1.23;;
20095;SDS011;10207;50.942;6.900;2023-08-08T13:01:28;5.20;;;1.60;;
20095;SDS011;10207;50.942;6.900;2023-08-08T13:03:54;5.45;;;1.75;;
20095;SDS011;10207;50.942;6.900;2023-08-08T13:06:20;4.28;;;1.83;;
20095;SDS011;10207;50.942;6.900;2023-08-08T13:08:46;4.55;;;1.90;;
20095;SDS011;10207;50.942;6.900;2023-08-08T13:11:12;8.40;;;2.35;;
20095;SDS011;10207;50.942;6.900;2023-08-08T13:13:38;7.15;;;2.95;;
20095;SDS011;10207;50.942;6.900;2023-08-08T13:16:04;8.38;;;2.78;;
20095;SDS011;10207;50.942;6.900;2023-08-08T13:18:30;4.88;;;1.70;;
20095;SDS011;10207;50.942;6.900;2023-08-08T13:20:55;7.70;;;2.00;;
20095;SDS011;10207;50.942;6.900;2023-08-08T13:23:21;5.45;;;1.30;;
20095;SDS011;10207;50.942;6.900;2023-08-08T13:25:47;3.75;;;1.27;;
20095;SDS011;10207;50.942;6.900;2023-08-08T13:28:14;8.32;;;1.55;;
20095;SDS011;10207;50.942;6.900;2023-08-08T13:30:40;4.68;;;1.20;;
20095;SDS011;10207;50.942;6.900;2023-08-08T13:33:08;7.38;;;1.50;;
20095;SDS011;10207;50.942;6.900;2023-08-08T13:35:34;4.80;;;1.25;;
20095;SDS011;10207;50.942;6.900;2023-08-08T13:38:00;4.65;;;1.20;;
20095;SDS011;10207;50.942;6.900;2023-08-08T13:40:26;8.20;;;1.50;;
20095;SDS011;10207;50.942;6.900;2023-08-08T13:42:52;6.32;;;1.58;;
20095;SDS011;10207;50.942;6.900;2023-08-08T13:45:19;6.03;;;1.30;;
20095;SDS011;10207;50.942;6.900;2023-08-08T13:47:46;7.40;;;1.85;;
20095;SDS011;10207;50.942;6.900;2023-08-08T13:50:13;4.63;;;1.48;;
20095;SDS011;10207;50.942;6.900;2023-08-08T13:52:39;3.55;;;1.10;;
20095;SDS011;10207;50.942;6.900;2023-08-08T13:55:06;2.83;;;1.20;;
20095;SDS011;10207;50.942;6.900;2023-08-08T13:57:32;3.13;;;0.90;;
20095;SDS011;10207;50.942;6.900;2023-08-08T13:59:58;4.70;;;1.38;;
20095;SDS011;10207;50.942;6.900;2023-08-08T14:02:24;5.82;;;1.85;;
20095;SDS011;10207;50.942;6.900;2023-08-08T14:04:50;4.45;;;1.20;;
20095;SDS011;10207;50.942;6.900;2023-08-08T14:07:16;5.45;;;1.35;;
20095;SDS011;10207;50.942;6.900;2023-08-08T14:09:42;4.38;;;1.42;;
20095;SDS011;10207;50.942;6.900;2023-08-08T14:12:08;4.45;;;1.30;;
20095;SDS011;10207;50.942;6.900;2023-08-08T14:14:33;6.53;;;1.95;;
20095;SDS011;10207;50.942;6.900;2023-08-08T14:16:59;7.93;;;1.40;;
20095;SDS011;10207;50.942;6.900;2023-08-08T14:19:26;3.83;;;1.40;;
20095;SDS011;10207;50.942;6.900;2023-08-08T14:21:51;5.18;;;1.58;;
20095;SDS011;10207;50.942;6.900;2023-08-08T14:24:17;3.65;;;1.05;;
20095;SDS011;10207;50.942;6.900;2023-08-08T14:26:44;7.57;;;1.40;;
20095;SDS011;10207;50.942;6.900;2023-08-08T14:29:10;2.85;;;1.40;;
20095;SDS011;10207;50.942;6.900;2023-08-08T14:31:36;3.17;;;1.05;;
20095;SDS011;10207;50.942;6.900;2023-08-08T14:34:02;3.15;;;1.15;;
20095;SDS011;10207;50.942;6.900;2023-08-08T14:36:28;8.02;;;1.10;;
20095;SDS011;10207;50.942;6.900;2023-08-08T14:38:54;5.70;;;1.45;;
20095;SDS011;10207;50.942;6.900;2023-08-08T14:41:20;2.63;;;1.10;;
20095;SDS011;10207;50.942;6.900;2023-08-08T14:43:47;3.58;;;1.20;;